메인 페이지
METAR-TAF:

METAR-TAF

공항 :

프린세스 줄리아나 국제공항

신트마르턴, 네덜란드령 안틸레스

위도: 18-03N, 경도: 063-07W, 고도: 4m

현재 날씨관측

예보는 34분 전, 14:00시(UTC)에 발표되었습니다.
12kt북동풍과 남동풍을 오가는
온도 29°C
습도 58%
기압 1017 hPa
시정 10km 이상
고도 2300ft 상공 구름 조금

METAR: TNCM 191400Z 09012KT 050V140 9999 FEW023 29/20 Q1017 NOSIG RMK A3004

시각: 10:34 (14:34 UTC)

예보

예보는 3 시간 14분 전, 11:20시(UTC)에 발표되었습니다.
예보 대상 시간: 19일 12시부터 20일 12시까지 (UTC)
12kt
시정: 10km
고도 2200ft 상공 구름 조금

TAF: TNCM 191120Z 1912/2012 08012KT P6SM FEW022

4,000개 이상의 공항 관측 자료 및 예보 (METAR 및 TAF 보고).

지도상에서 검색 가능한 기상관측소가 노란 점과 빨간 점으로 표시되어 있습니다.

기상관측소 명을 보려면 표시 위로 마우스를 이동하세요.

날씨 관측과 예보를 보려면 클릭하세요.

지도 변경 : 확대하려면 엑스 표시가 있는 녹색 버튼, 축소하려면 빼기 표시가 있는 녹색 버튼, 다음 페이지의 지도를 보려면 녹색 화살표를 클릭하세요.


METAR-TAF: